Rehfelde, Germany

5:04 PM CET on December 10, 2018 (GMT +0100)
Brandenburg | | Change Station

Elev 223 ft 52.53 °N, 13.89 °E | Updated 0 second ago

Overcast
Overcast
39 °F
Feels Like 39 °F
N
0
Wind Variable Wind from NNW
Gusts 0.0 mph

Today
High -- | Low -- °F
--% Chance of Precip.
Yesterday
High -- | Low -- °F
Precip. -- in
Pressure 29.83 in
Visibility 6.2 miles
Clouds Mostly Cloudy 2300 ft
Windchill 39 °F
Dew Point 34 °F
Humidity 81%
Rainfall 0.06 in
Snow Depth Not available.
8:03 AM 3:50 PM
Waxing Crescent, 10% visible
METAR EDDB 101550Z 27018KT 9999 BKN023 05/01 Q1010 TEMPO 29020G30KT
Pressure 29.83 in
Visibility 6.2 miles
Clouds Mostly Cloudy 2300 ft
Windchill 39 °F
Dew Point 34 °F
Humidity 81%
Rainfall 0.06 in
Snow Depth Not available.
8:03 AM 3:50 PM
Waxing Crescent, 10% visible
METAR EDDB 101550Z 27018KT 9999 BKN023 05/01 Q1010 TEMPO 29020G30KT

Get Severe Weather Alerts

Thanks for signing up!

Be on the lookout for a verification email in your inbox.

You'll start receiving the daily forecast at 6 AM.

×

10-Day Weather Forecast

×

Almanac

Astronomy

Dec. 10, 2018 Rise Set
Actual Time
Civil Twilight
Nautical Twilight
Astronomical Twilight
Moon
Length of Visible Light
Length of Day
Tomorrow will be .
, % of the Moon is Illuminated

Today's Extremes

Country Highs Country Lows

Community

WunderPhotos

Category 6

Welcome to Category 6. This is the collective home for Weather Underground's featured writeups by Dr. Jeff Masters (right), Bob Henson (left), Chris Burt, and other regular contributors.

Nearby

Air Quality

  Air Quality AQ Index Pollutant
Not available.

Snow Depth

Station Depth Elevation

Earthquake Activity

City Distance Mag. Time & Date
Minimum magnitude displayed is 2.5.

Coastal Water Temperatures

Place Temperature

Stations

Nearby Weather Stations

Station Location Temp. Windchill Dew Point Humidity Wind Precip. Elev Updated Type